PWSweather.com
Personal Weather Stations
Station Observations
BERGSLAGEN
Bergslagen, NoraSE

BergslagenNoraSE

Lat: 59.532278, Lon: 15.016132

Elevation: 492

Station Type: Davis Vantage Pro2 Plus Wireless

http://www.weather.tallasen.se

Latest ConditionsUpdated 10:45:03 AM GMT+01:01 Wednesday, May 22, 2019
Currently Today's Max Today's Min Today's Average
Temperature 69.8°F21.0°C 70.2°F21.2°C 56.1°F13.4°C 60.9°F16.1°C
Dew Point 56.2°F13.4°C 56.5°F13.6°C 51.4°F10.8°C 53.3°F11.8°C
Winds 2.0 mph SSE3.2 kmh SSE 3.0 mph -4.8 kmh - - 0.5 mph 0.8 kmh
Wind Gusts 6.0 mph9.7 kmh 8.0 mph12.9 kmh - -
Humidity 62% 84% 62% 77%
Pressure 29.81 in1009.5 mb 29.82 in1009.8 mb 29.80 in1009.1 mb -
Hour Temp Dew Point Humidity Winds Wind Gusts Pressure Precip Precip Rate Daily Precip Total
10:45 AM 69.8°F21.0°C 56.2°F13.4°C 62% 2.0 mph SSE3.2 kmh SSE 6.0 mph9.7 kmh 29.81 in1009.5 mb 0.00 in0.0 mm 0.00 in0.0 mm 0.00 in0.0 mm
10:30 AM 70.2°F21.2°C 56.5°F13.6°C 62% 3.0 mph SSE4.8 kmh SSE 7.0 mph11.3 kmh 29.81 in1009.5 mb 0.00 in0.0 mm 0.00 in0.0 mm 0.00 in0.0 mm
10:15 AM 70.2°F21.2°C 56.5°F13.6°C 62% 2.0 mph SE3.2 kmh SE 8.0 mph12.9 kmh 29.81 in1009.5 mb 0.00 in0.0 mm 0.00 in0.0 mm 0.00 in0.0 mm
10:00 AM 68.0°F20.0°C 56.2°F13.4°C 66% 2.0 mph S3.2 kmh S 7.0 mph11.3 kmh 29.81 in1009.5 mb 0.00 in0.0 mm 0.00 in0.0 mm 0.00 in0.0 mm
09:45 AM 68.0°F20.0°C 55.8°F13.2°C 65% 1.0 mph SE1.6 kmh SE 4.0 mph6.4 kmh 29.81 in1009.5 mb 0.00 in0.0 mm 0.00 in0.0 mm 0.00 in0.0 mm
09:30 AM 68.0°F20.0°C 56.2°F13.4°C 66% 1.0 mph ESE1.6 kmh ESE 5.0 mph8.0 kmh 29.81 in1009.5 mb 0.00 in0.0 mm 0.00 in0.0 mm 0.00 in0.0 mm
09:15 AM 66.9°F19.4°C 55.2°F12.9°C 66% 2.0 mph SSE3.2 kmh SSE 5.0 mph8.0 kmh 29.81 in1009.5 mb 0.00 in0.0 mm 0.00 in0.0 mm 0.00 in0.0 mm
09:00 AM 66.4°F19.1°C 55.5°F13.1°C 68% 1.0 mph S1.6 kmh S 6.0 mph9.7 kmh 29.81 in1009.5 mb 0.00 in0.0 mm 0.00 in0.0 mm 0.00 in0.0 mm
08:45 AM 65.7°F18.7°C 55.2°F12.9°C 69% 1.0 mph S1.6 kmh S 5.0 mph8.0 kmh 29.81 in1009.5 mb 0.00 in0.0 mm 0.00 in0.0 mm 0.00 in0.0 mm
08:30 AM 66.2°F19.0°C 55.7°F13.2°C 69% Calm Calm 4.0 mph6.4 kmh 29.81 in1009.5 mb 0.00 in0.0 mm 0.00 in0.0 mm 0.00 in0.0 mm
08:15 AM 65.1°F18.4°C 55.1°F12.8°C 70% 1.0 mph S1.6 kmh S 6.0 mph9.7 kmh 29.81 in1009.5 mb 0.00 in0.0 mm 0.00 in0.0 mm 0.00 in0.0 mm
08:00 AM 64.2°F17.9°C 54.6°F12.6°C 71% Calm Calm 3.0 mph4.8 kmh 29.80 in1009.1 mb 0.00 in0.0 mm 0.00 in0.0 mm 0.00 in0.0 mm
07:45 AM 63.3°F17.4°C 54.1°F12.3°C 72% 1.0 mph SSE1.6 kmh SSE 5.0 mph8.0 kmh 29.81 in1009.5 mb 0.00 in0.0 mm 0.00 in0.0 mm 0.00 in0.0 mm
07:30 AM 62.1°F16.7°C 53.7°F12.1°C 74% 2.0 mph S3.2 kmh S 6.0 mph9.7 kmh 29.81 in1009.5 mb 0.00 in0.0 mm 0.00 in0.0 mm 0.00 in0.0 mm
07:15 AM 61.3°F16.3°C 53.3°F11.8°C 75% 1.0 mph SSE1.6 kmh SSE 5.0 mph8.0 kmh 29.81 in1009.5 mb 0.00 in0.0 mm 0.00 in0.0 mm 0.00 in0.0 mm
07:00 AM 60.4°F15.8°C 52.8°F11.6°C 76% 1.0 mph S1.6 kmh S 5.0 mph8.0 kmh 29.81 in1009.5 mb 0.00 in0.0 mm 0.00 in0.0 mm 0.00 in0.0 mm
06:45 AM 59.4°F15.2°C 52.5°F11.4°C 78% 1.0 mph SSE1.6 kmh SSE 6.0 mph9.7 kmh 29.81 in1009.5 mb 0.00 in0.0 mm 0.00 in0.0 mm 0.00 in0.0 mm
06:30 AM 58.6°F14.8°C 52.5°F11.4°C 80% Calm Calm 3.0 mph4.8 kmh 29.81 in1009.5 mb 0.00 in0.0 mm 0.00 in0.0 mm 0.00 in0.0 mm
06:15 AM 57.9°F14.4°C 52.1°F11.2°C 81% Calm Calm 3.0 mph4.8 kmh 29.81 in1009.5 mb 0.00 in0.0 mm 0.00 in0.0 mm 0.00 in0.0 mm
06:00 AM 56.8°F13.8°C 51.7°F10.9°C 83% Calm Calm 3.0 mph4.8 kmh 29.81 in1009.5 mb 0.00 in0.0 mm 0.00 in0.0 mm 0.00 in0.0 mm
05:45 AM 56.7°F13.7°C 51.9°F11.1°C 84% Calm Calm 2.0 mph3.2 kmh 29.81 in1009.5 mb 0.00 in0.0 mm 0.00 in0.0 mm 0.00 in0.0 mm
05:30 AM 56.5°F13.6°C 51.7°F10.9°C 84% Calm Calm 5.0 mph8.0 kmh 29.82 in1009.8 mb 0.00 in0.0 mm 0.00 in0.0 mm 0.00 in0.0 mm
05:15 AM 56.5°F13.6°C 51.7°F10.9°C 84% Calm Calm 2.0 mph3.2 kmh 29.81 in1009.5 mb 0.00 in0.0 mm 0.00 in0.0 mm 0.00 in0.0 mm
05:00 AM 56.5°F13.6°C 51.7°F10.9°C 84% Calm Calm 3.0 mph4.8 kmh 29.81 in1009.5 mb 0.00 in0.0 mm 0.00 in0.0 mm 0.00 in0.0 mm
04:45 AM 56.1°F13.4°C 51.4°F10.8°C 84% Calm Calm 3.0 mph4.8 kmh 29.81 in1009.5 mb 0.00 in0.0 mm 0.00 in0.0 mm 0.00 in0.0 mm
04:30 AM 56.1°F13.4°C 51.4°F10.8°C 84% Calm Calm 3.0 mph4.8 kmh 29.81 in1009.5 mb 0.00 in0.0 mm 0.00 in0.0 mm 0.00 in0.0 mm
04:15 AM 56.5°F13.6°C 51.7°F10.9°C 84% Calm Calm 1.0 mph1.6 kmh 29.81 in1009.5 mb 0.00 in0.0 mm 0.00 in0.0 mm 0.00 in0.0 mm
04:00 AM 56.7°F13.7°C 51.6°F10.9°C 83% Calm Calm 3.0 mph4.8 kmh 29.81 in1009.5 mb 0.00 in0.0 mm 0.00 in0.0 mm 0.00 in0.0 mm
03:45 AM 56.8°F13.8°C 51.4°F10.8°C 82% Calm Calm 4.0 mph6.4 kmh 29.80 in1009.1 mb 0.00 in0.0 mm 0.00 in0.0 mm 0.00 in0.0 mm
03:30 AM 57.0°F13.9°C 51.9°F11.1°C 83% Calm Calm 4.0 mph6.4 kmh 29.80 in1009.1 mb 0.00 in0.0 mm 0.00 in0.0 mm 0.00 in0.0 mm
03:15 AM 57.2°F14.0°C 51.8°F11.0°C 82% Calm Calm 2.0 mph3.2 kmh 29.81 in1009.5 mb 0.00 in0.0 mm 0.00 in0.0 mm 0.00 in0.0 mm
03:00 AM 57.4°F14.1°C 51.9°F11.1°C 82% Calm Calm 6.0 mph9.7 kmh 29.81 in1009.5 mb 0.00 in0.0 mm 0.00 in0.0 mm 0.00 in0.0 mm
02:45 AM 57.9°F14.4°C 52.5°F11.4°C 82% Calm Calm 5.0 mph8.0 kmh 29.81 in1009.5 mb 0.00 in0.0 mm 0.00 in0.0 mm 0.00 in0.0 mm
02:30 AM 57.9°F14.4°C 52.5°F11.4°C 82% Calm Calm 2.0 mph3.2 kmh 29.81 in1009.5 mb 0.00 in0.0 mm 0.00 in0.0 mm 0.00 in0.0 mm
02:15 AM 58.3°F14.6°C 52.5°F11.4°C 81% Calm Calm 2.0 mph3.2 kmh 29.81 in1009.5 mb 0.00 in0.0 mm 0.00 in0.0 mm 0.00 in0.0 mm
02:00 AM 58.8°F14.9°C 52.7°F11.5°C 80% Calm Calm 3.0 mph4.8 kmh 29.80 in1009.1 mb 0.00 in0.0 mm 0.00 in0.0 mm 0.00 in0.0 mm
01:45 AM 59.2°F15.1°C 53.0°F11.7°C 80% Calm Calm 2.0 mph3.2 kmh 29.80 in1009.1 mb 0.00 in0.0 mm 0.00 in0.0 mm 0.00 in0.0 mm
01:30 AM 59.4°F15.2°C 52.8°F11.6°C 79% Calm Calm 1.0 mph1.6 kmh 29.80 in1009.1 mb 0.00 in0.0 mm 0.00 in0.0 mm 0.00 in0.0 mm
01:15 AM 59.5°F15.3°C 53.0°F11.7°C 79% Calm Calm 3.0 mph4.8 kmh 29.80 in1009.1 mb 0.00 in0.0 mm 0.00 in0.0 mm 0.00 in0.0 mm
01:00 AM 59.7°F15.4°C 52.8°F11.6°C 78% Calm Calm 3.0 mph4.8 kmh 29.81 in1009.5 mb 0.00 in0.0 mm 0.00 in0.0 mm 0.00 in0.0 mm
12:45 AM 60.1°F15.6°C 53.2°F11.8°C 78% Calm Calm 2.0 mph3.2 kmh 29.81 in1009.5 mb 0.00 in0.0 mm 0.00 in0.0 mm 0.00 in0.0 mm
12:30 AM 59.7°F15.4°C 52.8°F11.6°C 78% Calm Calm -- 29.81 in1009.5 mb 0.00 in0.0 mm 0.00 in0.0 mm 0.00 in0.0 mm
12:15 AM 60.1°F15.6°C 53.2°F11.8°C 78% Calm Calm 1.0 mph1.6 kmh 29.82 in1009.8 mb 0.00 in0.0 mm 0.00 in0.0 mm 0.00 in0.0 mm
12:00 AM 60.4°F15.8°C 53.5°F11.9°C 78% Calm Calm 1.0 mph1.6 kmh 29.82 in1009.8 mb 0.00 in0.0 mm 0.00 in0.0 mm 0.00 in0.0 mm